Time;durP1;ratioP1;P1;durP2;ratioP2;P2;SDS_P1;SDS_P2;PMS_P1;PMS_P2;Temp;Humidity;BMP_temperature;BMP_pressure;BME280_temperature;BME280_humidity;BME280_pressure;Samples;Min_cycle;Max_cycle;Signal;HPM_P1;HPM_P2
2021/09/23 00:00:26;;;;;;;12.93;10.25;;;16.60;99.90;;;;;;5014493;28;20030;-76
2021/09/23 00:05:21;;;;;;;18.00;10.40;;;16.50;99.90;;;;;;5014382;28;20476;-76
2021/09/23 00:07:49;;;;;;;14.10;10.80;;;16.40;99.90;;;;;;5014828;28;20100;-76
2021/09/23 00:10:20;;;;;;;13.75;9.85;;;16.40;99.90;;;;;;5014724;28;20029;-75
2021/09/23 00:12:46;;;;;;;16.57;11.70;;;16.40;99.90;;;;;;5014728;28;20057;-76
2021/09/23 00:15:15;;;;;;;17.13;11.32;;;16.30;99.90;;;;;;5014707;28;20092;-75
2021/09/23 00:17:47;;;;;;;16.17;10.95;;;16.40;99.90;;;;;;5014272;28;20193;-76
2021/09/23 00:20:15;;;;;;;14.93;10.48;;;16.40;99.90;;;;;;5014108;28;20392;-75
2021/09/23 00:22:41;;;;;;;14.98;10.65;;;16.40;99.90;;;;;;5012703;28;20503;-76
2021/09/23 00:25:08;;;;;;;13.73;9.88;;;16.50;99.90;;;;;;5013938;28;20058;-76
2021/09/23 00:27:33;;;;;;;16.13;10.52;;;16.60;99.90;;;;;;5013866;28;20018;-76
2021/09/23 00:29:59;;;;;;;14.35;11.30;;;16.60;99.90;;;;;;5014001;28;20022;-76
2021/09/23 00:32:25;;;;;;;16.77;10.90;;;16.70;99.90;;;;;;5012379;28;20033;-76
2021/09/23 00:34:50;;;;;;;13.20;10.45;;;16.70;99.90;;;;;;5013827;28;20065;-76
2021/09/23 00:37:16;;;;;;;13.40;10.27;;;16.80;99.90;;;;;;5013658;28;20026;-76
2021/09/23 00:39:42;;;;;;;17.15;11.63;;;16.80;99.90;;;;;;5013720;28;20029;-75
2021/09/23 00:42:08;;;;;;;16.48;11.10;;;16.80;99.90;;;;;;5013654;28;20022;-75
2021/09/23 00:44:34;;;;;;;15.68;11.05;;;16.80;99.90;;;;;;5015977;28;20030;-75
2021/09/23 00:47:00;;;;;;;16.13;10.70;;;16.90;99.90;;;;;;5013457;28;20021;-76
2021/09/23 00:49:25;;;;;;;16.17;11.63;;;16.80;99.90;;;;;;5013611;28;20484;-75
2021/09/23 00:51:52;;;;;;;16.95;11.95;;;16.80;99.90;;;;;;5013481;28;20080;-76
2021/09/23 00:54:18;;;;;;;16.38;11.40;;;16.90;99.90;;;;;;5013195;28;20141;-76
2021/09/23 00:56:44;;;;;;;17.55;11.93;;;16.90;99.90;;;;;;5013533;28;20033;-75
2021/09/23 00:59:10;;;;;;;15.80;11.35;;;16.80;99.90;;;;;;5013250;28;20021;-76
2021/09/23 01:01:35;;;;;;;25.05;12.00;;;16.80;99.90;;;;;;5013159;28;20549;-75
2021/09/23 01:04:01;;;;;;;18.67;11.27;;;16.80;99.90;;;;;;5013370;28;20121;-75
2021/09/23 01:06:27;;;;;;;14.98;11.05;;;16.90;99.90;;;;;;5013124;28;20057;-75
2021/09/23 01:08:57;;;;;;;14.18;11.27;;;16.90;99.90;;;;;;5012998;28;20026;-76
2021/09/23 01:11:26;;;;;;;16.27;11.25;;;16.90;99.90;;;;;;5013150;28;20041;-75
2021/09/23 01:13:52;;;;;;;14.60;10.73;;;16.90;99.90;;;;;;5013167;28;20034;-76
2021/09/23 01:16:18;;;;;;;16.30;11.70;;;16.90;99.90;;;;;;5012903;28;20484;-76
2021/09/23 01:18:44;;;;;;;14.90;10.75;;;16.90;99.90;;;;;;5010664;28;20076;-75
2021/09/23 01:21:10;;;;;;;16.10;10.98;;;16.90;99.90;;;;;;5012880;28;20029;-75
2021/09/23 01:23:44;;;;;;;16.88;11.52;;;16.90;99.90;;;;;;5011611;28;20441;-75
2021/09/23 01:26:13;;;;;;;17.35;11.02;;;16.90;99.90;;;;;;5012705;28;20029;-76
2021/09/23 01:28:39;;;;;;;15.50;11.15;;;16.90;99.90;;;;;;5011419;28;20032;-75
2021/09/23 01:31:06;;;;;;;14.02;10.27;;;16.90;99.90;;;;;;5012701;28;20053;-76
2021/09/23 01:33:32;;;;;;;15.80;11.18;;;16.90;99.90;;;;;;5012731;28;20030;-75
2021/09/23 01:35:59;;;;;;;14.90;11.50;;;16.90;99.90;;;;;;5012591;28;20026;-75
2021/09/23 01:38:27;;;;;;;16.73;11.50;;;16.90;99.90;;;;;;5012478;28;20018;-76
2021/09/23 01:40:54;;;;;;;15.00;11.13;;;16.90;99.90;;;;;;5012512;28;20026;-75
2021/09/23 01:43:23;;;;;;;16.77;10.93;;;16.90;99.90;;;;;;5012644;28;20034;-75
2021/09/23 01:45:49;;;;;;;15.15;11.20;;;16.80;99.90;;;;;;5012367;28;20108;-76
2021/09/23 01:48:15;;;;;;;14.82;10.30;;;16.90;99.90;;;;;;5012226;28;20544;-75
2021/09/23 01:50:41;;;;;;;15.93;10.75;;;16.90;99.90;;;;;;5012474;28;20018;-75
2021/09/23 01:53:06;;;;;;;15.05;10.55;;;16.90;99.90;;;;;;5012321;28;20047;-75
2021/09/23 01:55:32;;;;;;;14.82;9.57;;;16.90;99.90;;;;;;5012232;28;20030;-75
2021/09/23 01:57:59;;;;;;;13.50;9.38;;;16.80;99.90;;;;;;5012336;28;20018;-75
2021/09/23 02:00:25;;;;;;;15.27;10.18;;;16.80;99.90;;;;;;5012267;28;20030;-75
2021/09/23 02:02:51;;;;;;;13.35;9.70;;;16.70;99.90;;;;;;5012028;28;20141;-75
2021/09/23 02:05:17;;;;;;;12.18;9.75;;;16.70;99.90;;;;;;5012246;28;20029;-75
2021/09/23 02:07:43;;;;;;;12.65;9.50;;;16.70;99.90;;;;;;5012030;28;20022;-76
2021/09/23 02:10:10;;;;;;;11.10;9.02;;;16.60;99.90;;;;;;5011957;28;20026;-75
2021/09/23 02:12:36;;;;;;;13.07;9.27;;;16.70;99.90;;;;;;5012083;28;20540;-75
2021/09/23 02:15:02;;;;;;;12.45;9.38;;;16.60;99.90;;;;;;5012162;28;20117;-76
2021/09/23 02:17:29;;;;;;;13.85;9.50;;;16.60;99.90;;;;;;5011612;28;20464;-75
2021/09/23 02:19:56;;;;;;;14.52;9.90;;;16.60;99.90;;;;;;5012045;28;20480;-76
2021/09/23 02:22:22;;;;;;;14.40;9.88;;;16.50;99.90;;;;;;5012019;28;20026;-76
2021/09/23 02:24:48;;;;;;;13.93;10.20;;;16.50;99.90;;;;;;5011874;28;20166;-75
2021/09/23 02:27:14;;;;;;;13.05;10.02;;;16.50;99.90;;;;;;5011811;28;20033;-75
2021/09/23 02:29:40;;;;;;;17.35;11.10;;;16.50;99.90;;;;;;5010314;28;20060;-76
2021/09/23 02:32:06;;;;;;;19.83;11.55;;;16.50;99.90;;;;;;5011668;28;20488;-75
2021/09/23 02:34:32;;;;;;;16.00;11.80;;;16.60;99.90;;;;;;5011596;28;20018;-76
2021/09/23 02:36:58;;;;;;;16.92;11.43;;;16.60;99.90;;;;;;5011857;28;20475;-75
2021/09/23 02:39:24;;;;;;;17.75;11.77;;;16.70;99.90;;;;;;5011600;28;20053;-76
2021/09/23 02:41:50;;;;;;;20.35;11.90;;;16.70;99.90;;;;;;5014269;28;20475;-76
2021/09/23 02:44:16;;;;;;;17.52;11.40;;;16.70;99.90;;;;;;5011736;28;20380;-76
2021/09/23 02:46:42;;;;;;;20.88;13.15;;;16.70;99.90;;;;;;5011492;28;20026;-76
2021/09/23 02:49:08;;;;;;;16.73;11.73;;;16.80;99.90;;;;;;5011705;28;20017;-75
2021/09/23 02:51:33;;;;;;;18.27;11.75;;;16.80;99.90;;;;;;5011673;28;20392;-76
2021/09/23 02:53:59;;;;;;;16.13;11.63;;;16.80;99.90;;;;;;5011426;28;20511;-76
2021/09/23 02:56:25;;;;;;;17.48;10.77;;;16.70;99.90;;;;;;5011664;28;20076;-75
2021/09/23 02:58:51;;;;;;;19.33;12.65;;;16.70;99.90;;;;;;5010260;28;20463;-75
2021/09/23 03:01:18;;;;;;;14.43;11.40;;;16.70;99.90;;;;;;5011318;28;20034;-76
2021/09/23 03:03:44;;;;;;;17.33;10.80;;;16.70;99.90;;;;;;5011595;28;20427;-76
2021/09/23 03:06:10;;;;;;;15.27;11.13;;;16.70;99.90;;;;;;5010175;28;20021;-75
2021/09/23 03:08:36;;;;;;;17.83;11.38;;;16.70;99.90;;;;;;5011332;28;20037;-75
2021/09/23 03:11:02;;;;;;;15.55;11.02;;;16.70;99.90;;;;;;5011566;28;20432;-75
2021/09/23 03:13:28;;;;;;;18.20;10.77;;;16.70;99.90;;;;;;5010164;28;20041;-75
2021/09/23 03:15:53;;;;;;;15.65;12.13;;;16.60;99.90;;;;;;5011254;28;20105;-75
2021/09/23 03:18:19;;;;;;;16.85;11.80;;;16.70;99.90;;;;;;5011376;28;20029;-76
2021/09/23 03:20:46;;;;;;;18.13;12.05;;;16.70;99.90;;;;;;5009939;28;20515;-76
2021/09/23 03:23:12;;;;;;;19.65;11.82;;;16.70;99.90;;;;;;5011323;28;20026;-75
2021/09/23 03:25:39;;;;;;;14.98;11.13;;;16.70;99.90;;;;;;5010115;28;20435;-76
2021/09/23 03:28:06;;;;;;;16.05;10.73;;;16.80;99.90;;;;;;5011176;28;20050;-75
2021/09/23 03:30:34;;;;;;;16.75;11.93;;;16.80;99.90;;;;;;5009897;28;20455;-76
2021/09/23 03:33:04;;;;;;;15.02;11.43;;;16.60;99.90;;;;;;5011281;28;20018;-75
2021/09/23 03:35:30;;;;;;;17.10;11.35;;;16.70;99.90;;;;;;5011177;28;20030;-75
2021/09/23 03:37:56;;;;;;;17.92;11.85;;;16.70;99.90;;;;;;5011239;28;20025;-75
2021/09/23 03:40:22;;;;;;;15.43;11.00;;;16.60;99.90;;;;;;5009859;28;20030;-75
2021/09/23 03:42:48;;;;;;;17.90;11.35;;;16.70;99.90;;;;;;5014699;28;20044;-76
2021/09/23 03:45:14;;;;;;;17.30;11.20;;;16.70;99.90;;;;;;5014703;28;20029;-75
2021/09/23 03:47:39;;;;;;;15.95;11.25;;;16.80;99.90;;;;;;5014768;28;20030;-76
2021/09/23 03:50:06;;;;;;;15.57;11.40;;;16.70;99.90;;;;;;5014916;28;20550;-76
2021/09/23 03:52:32;;;;;;;18.65;11.70;;;16.80;99.90;;;;;;5014681;28;20471;-75
2021/09/23 03:54:59;;;;;;;19.38;11.60;;;16.80;99.90;;;;;;5013616;28;20518;-75
2021/09/23 03:57:26;;;;;;;16.45;12.23;;;16.80;99.90;;;;;;5014563;28;20025;-75
2021/09/23 03:59:53;;;;;;;18.10;12.05;;;16.80;99.90;;;;;;5013138;28;20088;-75
2021/09/23 04:02:19;;;;;;;15.55;11.02;;;16.80;99.90;;;;;;5014233;28;20480;-75
2021/09/23 04:04:45;;;;;;;19.60;11.60;;;16.90;99.90;;;;;;5014291;28;20025;-75
2021/09/23 04:07:11;;;;;;;18.70;11.40;;;16.80;99.90;;;;;;5014095;28;20104;-75
2021/09/23 04:09:37;;;;;;;17.10;11.88;;;16.80;99.90;;;;;;5014334;28;20105;-75
2021/09/23 04:12:03;;;;;;;18.00;12.60;;;16.80;99.90;;;;;;5014245;28;20084;-75
2021/09/23 04:14:28;;;;;;;18.40;11.52;;;16.80;99.90;;;;;;5014216;28;20026;-75
2021/09/23 04:16:54;;;;;;;20.23;11.85;;;16.80;99.90;;;;;;5013868;28;20428;-75
2021/09/23 04:19:20;;;;;;;20.88;12.77;;;16.80;99.90;;;;;;5012880;28;20126;-75
2021/09/23 04:21:46;;;;;;;17.58;12.13;;;16.80;99.90;;;;;;5013989;28;20022;-75
2021/09/23 04:24:12;;;;;;;18.75;12.05;;;16.70;99.90;;;;;;5012587;28;20480;-75
2021/09/23 04:26:38;;;;;;;17.00;11.23;;;16.70;99.90;;;;;;5013796;28;20026;-75
2021/09/23 04:29:05;;;;;;;18.42;11.95;;;16.70;99.90;;;;;;5013735;28;20022;-75
2021/09/23 04:31:30;;;;;;;17.63;11.90;;;16.70;99.90;;;;;;5012453;28;20369;-75
2021/09/23 04:33:56;;;;;;;17.27;12.00;;;16.70;99.90;;;;;;5013888;28;20032;-75
2021/09/23 04:36:22;;;;;;;16.90;11.55;;;16.70;99.90;;;;;;5016197;28;20088;-75
2021/09/23 04:38:47;;;;;;;16.52;12.02;;;16.70;99.90;;;;;;5013662;28;20506;-75
2021/09/23 04:41:13;;;;;;;17.38;11.65;;;16.70;99.90;;;;;;5013431;28;20496;-76
2021/09/23 04:43:40;;;;;;;17.52;11.07;;;16.70;99.90;;;;;;5013502;28;20033;-76
2021/09/23 04:46:07;;;;;;;16.20;11.55;;;16.70;99.90;;;;;;5013511;28;20026;-75
2021/09/23 04:48:33;;;;;;;18.08;10.25;;;16.70;99.90;;;;;;5013454;28;20033;-75
2021/09/23 04:50:59;;;;;;;17.02;10.77;;;16.70;99.90;;;;;;5013299;28;20025;-75
2021/09/23 04:53:26;;;;;;;16.73;11.82;;;16.80;99.90;;;;;;5013179;28;20192;-75
2021/09/23 04:55:51;;;;;;;17.77;11.77;;;16.80;99.90;;;;;;5011076;28;20038;-75
2021/09/23 04:58:17;;;;;;;15.48;10.57;;;16.80;99.90;;;;;;5011966;28;20030;-75
2021/09/23 05:00:43;;;;;;;18.83;11.35;;;16.80;99.90;;;;;;5012611;28;20108;-75
2021/09/23 05:03:10;;;;;;;16.60;10.73;;;16.80;99.90;;;;;;5011764;28;20030;-75
2021/09/23 05:05:38;;;;;;;16.38;10.85;;;16.80;99.90;;;;;;5011795;28;20018;-76
2021/09/23 05:08:04;;;;;;;15.77;11.10;;;16.70;99.90;;;;;;5011581;28;20057;-75
2021/09/23 05:10:30;;;;;;;15.07;10.43;;;16.80;99.90;;;;;;5011478;28;20101;-75
2021/09/23 05:12:56;;;;;;;16.30;10.25;;;16.80;99.90;;;;;;5010875;28;20178;-75
2021/09/23 05:15:25;;;;;;;16.73;10.43;;;16.80;99.90;;;;;;5010623;28;20022;-75
2021/09/23 05:17:50;;;;;;;16.25;9.85;;;16.80;99.90;;;;;;5007081;28;20096;-75
2021/09/23 05:20:17;;;;;;;13.32;9.85;;;16.80;99.90;;;;;;5008348;28;20503;-75
2021/09/23 05:22:43;;;;;;;13.57;9.32;;;16.80;99.90;;;;;;5010589;28;20048;-76
2021/09/23 05:25:10;;;;;;;12.13;9.27;;;16.80;99.90;;;;;;5009354;28;20456;-76
2021/09/23 05:27:37;;;;;;;14.27;9.32;;;16.90;99.90;;;;;;5010667;28;20026;-75
2021/09/23 05:30:05;;;;;;;13.65;9.32;;;16.90;99.90;;;;;;5010769;28;20014;-76
2021/09/23 05:32:31;;;;;;;13.63;10.18;;;16.90;99.90;;;;;;5011741;28;20030;-76
2021/09/23 05:34:57;;;;;;;14.88;10.27;;;16.90;99.90;;;;;;5013068;28;20034;-75
2021/09/23 05:37:22;;;;;;;15.07;9.88;;;16.90;99.90;;;;;;5013346;28;20030;-75
2021/09/23 05:39:48;;;;;;;14.00;9.98;;;17.00;99.90;;;;;;5013341;28;20101;-75
2021/09/23 05:42:14;;;;;;;15.57;9.00;;;17.00;99.90;;;;;;5013235;28;20049;-75
2021/09/23 05:44:40;;;;;;;11.65;8.88;;;17.00;99.90;;;;;;5012771;28;20022;-75
2021/09/23 05:47:06;;;;;;;11.32;8.82;;;17.00;99.90;;;;;;5010508;28;20449;-75
2021/09/23 05:49:32;;;;;;;12.90;8.68;;;17.00;99.90;;;;;;5011431;28;20024;-75
2021/09/23 05:51:59;;;;;;;11.35;9.13;;;17.00;99.90;;;;;;5011634;28;20029;-75
2021/09/23 05:54:26;;;;;;;12.23;9.05;;;17.00;99.90;;;;;;5011480;28;20100;-75
2021/09/23 05:56:52;;;;;;;15.30;9.38;;;17.00;99.90;;;;;;5011804;28;20022;-75
2021/09/23 05:59:18;;;;;;;13.82;9.05;;;17.00;99.90;;;;;;5012134;28;20041;-75
2021/09/23 06:01:44;;;;;;;12.15;9.70;;;17.10;99.90;;;;;;5012753;28;20257;-76
2021/09/23 06:04:10;;;;;;;12.23;8.88;;;17.10;99.90;;;;;;5012800;28;20029;-76
2021/09/23 06:06:37;;;;;;;11.38;7.90;;;17.10;99.90;;;;;;5013019;28;20025;-75
2021/09/23 06:09:03;;;;;;;12.05;8.02;;;17.10;99.90;;;;;;5013218;28;20052;-76
2021/09/23 06:11:30;;;;;;;9.80;7.60;;;17.20;99.90;;;;;;5013204;28;20025;-76
2021/09/23 06:13:56;;;;;;;11.00;7.55;;;17.20;99.90;;;;;;5013200;28;20026;-75
2021/09/23 06:16:22;;;;;;;11.60;8.80;;;17.30;99.90;;;;;;5013059;28;20026;-75
2021/09/23 06:18:48;;;;;;;10.07;7.68;;;17.30;99.90;;;;;;5013131;28;20109;-76
2021/09/23 06:21:14;;;;;;;8.23;7.32;;;17.30;99.90;;;;;;5012964;28;20084;-75
2021/09/23 06:23:40;;;;;;;12.85;9.00;;;17.30;99.90;;;;;;5013104;28;20018;-75
2021/09/23 06:26:06;;;;;;;14.82;8.75;;;17.30;99.90;;;;;;5011452;28;20025;-76
2021/09/23 06:28:32;;;;;;;6.43;5.80;;;17.40;99.90;;;;;;5012870;28;20082;-76
2021/09/23 06:31:02;;;;;;;12.38;7.75;;;17.80;99.90;;;;;;5012953;28;20432;-75
2021/09/23 06:33:28;;;;;;;12.48;8.27;;;18.00;99.90;;;;;;5012782;28;20025;-76
2021/09/23 06:35:54;;;;;;;9.32;7.13;;;17.90;99.90;;;;;;5011715;28;20022;-76
2021/09/23 06:38:20;;;;;;;13.18;8.57;;;17.80;99.90;;;;;;5012805;28;20033;-76
2021/09/23 06:40:46;;;;;;;12.45;8.00;;;17.80;99.90;;;;;;5011681;28;20030;-75
2021/09/23 06:43:12;;;;;;;11.43;8.23;;;17.70;99.90;;;;;;5011103;28;20515;-75
2021/09/23 06:45:38;;;;;;;8.50;7.65;;;17.70;99.90;;;;;;5012211;28;20022;-75
2021/09/23 06:48:04;;;;;;;12.90;7.68;;;17.70;99.90;;;;;;5009623;28;20109;-75
2021/09/23 06:50:30;;;;;;;7.85;7.05;;;17.70;99.90;;;;;;5010711;28;20030;-75
2021/09/23 06:52:56;;;;;;;10.27;7.75;;;17.70;99.90;;;;;;5009263;28;20064;-75
2021/09/23 06:55:22;;;;;;;9.23;7.18;;;17.80;99.90;;;;;;5011276;28;20382;-76
2021/09/23 06:57:47;;;;;;;10.10;7.28;;;17.80;99.90;;;;;;5041459;28;20129;-75
2021/09/23 07:00:14;;;;;;;15.50;7.80;;;17.80;99.90;;;;;;5009873;28;20049;-76
2021/09/23 07:02:39;;;;;;;8.38;7.53;;;17.80;99.90;;;;;;5009787;28;20034;-75
2021/09/23 07:05:05;;;;;;;9.57;7.50;;;17.80;99.90;;;;;;5009594;28;20030;-76
2021/09/23 07:07:31;;;;;;;10.00;8.00;;;17.90;99.90;;;;;;5011110;28;20093;-75
2021/09/23 07:10:00;;;;;;;10.60;8.02;;;18.00;99.90;;;;;;5011544;28;20105;-76
2021/09/23 07:12:25;;;;;;;11.73;7.55;;;18.00;99.90;;;;;;5011531;28;20026;-76
2021/09/23 07:14:51;;;;;;;10.27;6.80;;;18.00;99.90;;;;;;5011231;28;20029;-76
2021/09/23 07:17:17;;;;;;;8.95;6.80;;;18.10;99.90;;;;;;5014303;28;20583;-75
2021/09/23 07:19:43;;;;;;;8.75;7.28;;;18.10;99.90;;;;;;5015097;28;20108;-76
2021/09/23 07:22:09;;;;;;;12.70;8.00;;;18.10;99.90;;;;;;5014882;28;20026;-76
2021/09/23 07:24:35;;;;;;;9.48;7.80;;;18.20;99.90;;;;;;5015122;28;20384;-76
2021/09/23 07:27:01;;;;;;;12.05;7.85;;;18.20;99.90;;;;;;5013571;28;20025;-76
2021/09/23 07:29:27;;;;;;;8.93;7.65;;;18.20;99.90;;;;;;5015071;28;20036;-76
2021/09/23 07:31:53;;;;;;;11.68;7.60;;;18.30;99.90;;;;;;5015139;28;20113;-76
2021/09/23 07:34:19;;;;;;;14.20;8.02;;;18.30;99.90;;;;;;5014035;28;20391;-76
2021/09/23 07:36:45;;;;;;;8.63;7.45;;;18.30;99.90;;;;;;5014919;28;20113;-76
2021/09/23 07:39:11;;;;;;;11.10;7.30;;;18.40;99.90;;;;;;5014979;28;20018;-76
2021/09/23 07:41:39;;;;;;;11.77;7.45;;;18.40;99.90;;;;;;5014629;28;20026;-76
2021/09/23 07:44:06;;;;;;;8.45;6.50;;;18.40;99.90;;;;;;5014635;28;20233;-76
2021/09/23 07:46:32;;;;;;;8.32;6.55;;;18.40;99.90;;;;;;5014514;28;20125;-76
2021/09/23 07:48:58;;;;;;;10.23;6.65;;;18.50;99.90;;;;;;5013264;28;20555;-76
2021/09/23 07:51:24;;;;;;;9.70;6.80;;;18.40;99.90;;;;;;5014532;28;20026;-76
2021/09/23 07:53:49;;;;;;;8.45;6.40;;;18.50;99.90;;;;;;5014270;28;20463;-76
2021/09/23 07:56:15;;;;;;;8.70;6.35;;;18.50;99.90;;;;;;5014493;28;20029;-76
2021/09/23 07:58:41;;;;;;;10.98;7.03;;;18.60;99.90;;;;;;5014185;28;20057;-76
2021/09/23 08:01:09;;;;;;;7.82;6.47;;;18.60;99.90;;;;;;5014346;28;20072;-76
2021/09/23 08:03:34;;;;;;;8.23;6.13;;;18.70;99.90;;;;;;5013117;28;20068;-76
2021/09/23 08:06:00;;;;;;;6.40;5.75;;;18.70;99.90;;;;;;5014177;28;20049;-76
2021/09/23 08:08:26;;;;;;;7.28;6.20;;;18.70;99.90;;;;;;5012933;28;20032;-76
2021/09/23 08:10:52;;;;;;;6.10;5.47;;;18.80;99.90;;;;;;5014067;28;20022;-76
2021/09/23 08:13:17;;;;;;;9.52;6.63;;;18.80;99.90;;;;;;5014134;28;20408;-76
2021/09/23 08:15:43;;;;;;;6.53;5.88;;;18.80;99.90;;;;;;5014121;28;20022;-76
2021/09/23 08:18:10;;;;;;;9.38;6.55;;;18.90;99.90;;;;;;5014095;28;20030;-76
2021/09/23 08:20:35;;;;;;;7.57;6.78;;;19.00;99.90;;;;;;5013883;28;20026;-76
2021/09/23 08:23:02;;;;;;;4.00;3.72;;;19.10;99.90;;;;;;5013969;28;20087;-76
2021/09/23 08:25:27;;;;;;;4.38;3.97;;;19.00;99.90;;;;;;5013926;28;20026;-76
2021/09/23 08:27:53;;;;;;;5.82;4.50;;;19.10;99.90;;;;;;5013341;28;20029;-76
2021/09/23 08:30:19;;;;;;;5.57;4.45;;;19.10;99.90;;;;;;5013827;28;20014;-76
2021/09/23 08:32:45;;;;;;;5.88;4.10;;;19.20;99.90;;;;;;5013601;28;20511;-76
2021/09/23 08:35:11;;;;;;;3.70;3.40;;;19.30;99.90;;;;;;5012289;28;20072;-76
2021/09/23 08:37:38;;;;;;;3.97;3.65;;;19.30;99.90;;;;;;5013643;28;20102;-76
2021/09/23 08:40:12;;;;;;;4.13;3.83;;;19.30;99.90;;;;;;5013639;28;20022;-76
2021/09/23 08:42:40;;;;;;;3.83;3.25;;;19.40;99.90;;;;;;5012266;28;20491;-76
2021/09/23 08:45:08;;;;;;;3.05;2.85;;;19.50;99.90;;;;;;5015813;28;20018;-76
2021/09/23 08:47:34;;;;;;;3.70;3.17;;;19.40;99.90;;;;;;5013367;28;20053;-76
2021/09/23 08:50:02;;;;;;;3.03;2.83;;;19.50;99.90;;;;;;5013474;28;20076;-76
2021/09/23 08:52:29;;;;;;;3.20;3.00;;;19.50;99.90;;;;;;5013435;28;20034;-76
2021/09/23 08:54:55;;;;;;;2.95;2.75;;;19.50;99.90;;;;;;5013335;28;20057;-76
2021/09/23 08:57:21;;;;;;;3.00;2.80;;;19.50;99.90;;;;;;5013198;28;20022;-76
2021/09/23 08:59:47;;;;;;;2.95;2.75;;;19.50;99.90;;;;;;5013266;28;20029;-76
2021/09/23 09:02:27;;;;;;;2.90;2.70;;;19.60;99.90;;;;;;5011756;28;20022;-76
2021/09/23 09:04:57;;;;;;;2.90;2.80;;;19.60;99.90;;;;;;5013058;28;20021;-76
2021/09/23 09:07:30;;;;;;;3.08;2.78;;;19.70;99.90;;;;;;5013106;28;20101;-76
2021/09/23 09:10:06;;;;;;;2.75;2.53;;;19.80;99.90;;;;;;5012991;28;20048;-76
2021/09/23 09:12:32;;;;;;;2.60;2.50;;;19.80;99.90;;;;;;5013006;28;20246;-76
2021/09/23 09:15:00;;;;;;;3.15;2.88;;;19.80;99.90;;;;;;5012986;28;20088;-76
2021/09/23 09:17:26;;;;;;;3.53;3.22;;;19.90;99.90;;;;;;5012996;28;20034;-76
2021/09/23 09:20:02;;;;;;;2.83;2.60;;;19.90;99.90;;;;;;5012883;28;20028;-76
2021/09/23 09:22:30;;;;;;;2.78;2.58;;;19.90;99.90;;;;;;5012772;28;20404;-76
2021/09/23 09:24:58;;;;;;;3.10;2.80;;;19.90;99.90;;;;;;5012745;28;20459;-76
2021/09/23 09:27:38;;;;;;;2.72;2.53;;;19.90;99.90;;;;;;5012562;28;20018;-76
2021/09/23 09:30:15;;;;;;;3.03;2.72;;;20.00;99.90;;;;;;5012831;28;20022;-76
2021/09/23 09:32:57;;;;;;;5.53;2.83;;;20.00;99.90;;;;;;5012657;28;20180;-77
2021/09/23 09:35:31;;;;;;;3.05;2.70;;;20.10;99.90;;;;;;5012667;28;20050;-76
2021/09/23 09:37:59;;;;;;;3.22;3.03;;;20.20;99.90;;;;;;5012152;28;20522;-76
2021/09/23 09:40:30;;;;;;;3.65;3.35;;;20.20;99.90;;;;;;5012090;28;20026;-76
2021/09/23 09:42:56;;;;;;;3.30;3.03;;;20.30;99.90;;;;;;5012537;28;20032;-76
2021/09/23 09:45:31;;;;;;;4.22;3.28;;;20.30;99.90;;;;;;5012368;28;20026;-76
2021/09/23 09:47:58;;;;;;;3.65;3.40;;;20.30;99.90;;;;;;5012333;28;20053;-76
2021/09/23 09:50:26;;;;;;;3.83;3.00;;;20.40;99.90;;;;;;5011233;28;20026;-76
2021/09/23 09:52:57;;;;;;;4.45;3.20;;;20.40;99.90;;;;;;5012024;28;20057;-76
2021/09/23 09:55:28;;;;;;;3.00;2.80;;;20.40;99.90;;;;;;5012272;28;20284;-76
2021/09/23 09:57:54;;;;;;;6.25;3.20;;;20.50;99.90;;;;;;5012087;28;20404;-76
2021/09/23 10:00:21;;;;;;;4.13;3.40;;;20.40;99.90;;;;;;5012203;28;20060;-76
2021/09/23 10:02:48;;;;;;;4.15;3.35;;;20.40;99.90;;;;;;5012098;28;20496;-76
2021/09/23 10:05:17;;;;;;;3.53;3.22;;;20.40;99.90;;;;;;5012001;28;20022;-76
2021/09/23 10:07:47;;;;;;;3.17;2.92;;;20.40;99.90;;;;;;5010623;28;20021;-76
2021/09/23 10:10:15;;;;;;;3.60;3.30;;;20.40;99.90;;;;;;5011973;28;20044;-76
2021/09/23 10:12:42;;;;;;;3.75;2.95;;;20.40;99.90;;;;;;5011973;28;20030;-76
2021/09/23 10:15:13;;;;;;;3.92;3.63;;;20.40;99.90;;;;;;5010878;28;20022;-76
2021/09/23 10:17:44;;;;;;;2.75;2.65;;;20.40;99.90;;;;;;5010733;28;20033;-76
2021/09/23 10:20:12;;;;;;;4.28;3.88;;;20.60;99.90;;;;;;5010768;28;20022;-76
2021/09/23 10:22:38;;;;;;;5.28;4.18;;;20.60;99.90;;;;;;5011806;28;20026;-76
2021/09/23 10:25:07;;;;;;;4.18;3.78;;;20.70;99.90;;;;;;5011726;28;20018;-76
2021/09/23 10:30:19;;;;;;;6.03;4.13;;;20.90;99.90;;;;;;5011763;28;20088;-76
2021/09/23 10:32:46;;;;;;;4.40;4.07;;;20.90;99.30;;;;;;5011846;28;20038;-76
2021/09/23 10:35:22;;;;;;;4.43;4.07;;;20.90;99.90;;;;;;5010299;28;20034;-76
2021/09/23 10:37:49;;;;;;;4.70;4.30;;;20.90;99.80;;;;;;5011775;28;20036;-77
2021/09/23 10:40:17;;;;;;;9.68;4.30;;;21.00;99.50;;;;;;5011758;28;20022;-76
2021/09/23 10:42:44;;;;;;;5.18;4.18;;;21.00;99.30;;;;;;5011476;28;20025;-76
2021/09/23 10:45:13;;;;;;;4.88;4.32;;;20.90;98.90;;;;;;5026881;28;20125;-76
2021/09/23 10:47:39;;;;;;;4.97;4.57;;;21.00;99.60;;;;;;5031440;28;20013;-76
2021/09/23 10:50:07;;;;;;;3.97;3.67;;;20.90;98.80;;;;;;5032472;28;20039;-76
2021/09/23 10:52:34;;;;;;;5.20;4.80;;;21.10;99.90;;;;;;5035136;28;20045;-76
2021/09/23 10:55:05;;;;;;;4.30;3.72;;;21.20;99.00;;;;;;5035352;28;20029;-76
2021/09/23 10:57:32;;;;;;;5.47;4.30;;;21.30;99.50;;;;;;5035251;28;20549;-76
2021/09/23 11:00:03;;;;;;;6.25;4.90;;;21.30;97.90;;;;;;5035403;28;20029;-76
2021/09/23 11:02:31;;;;;;;5.28;4.55;;;21.20;97.90;;;;;;5035128;28;20029;-76
2021/09/23 11:04:59;;;;;;;5.50;4.10;;;21.20;97.70;;;;;;5019634;28;20014;-76
2021/09/23 11:07:29;;;;;;;4.38;3.97;;;21.10;98.40;;;;;;5015131;28;20030;-76
2021/09/23 11:10:17;;;;;;;4.60;4.20;;;21.10;97.90;;;;;;5015437;28;20046;-76
2021/09/23 11:12:48;;;;;;;4.80;4.28;;;21.00;97.80;;;;;;5015375;28;20026;-76
2021/09/23 11:15:16;;;;;;;4.70;4.20;;;21.00;98.20;;;;;;5015391;28;20508;-76
2021/09/23 11:17:43;;;;;;;6.45;5.65;;;21.10;97.90;;;;;;5014893;28;20033;-73
2021/09/23 11:20:13;;;;;;;6.10;4.20;;;21.10;97.60;;;;;;5015186;28;20026;-73
2021/09/23 11:22:49;;;;;;;4.82;4.28;;;21.10;98.40;;;;;;5014532;28;20111;-73
2021/09/23 11:25:21;;;;;;;6.78;4.50;;;21.20;98.00;;;;;;5013594;28;20029;-76
2021/09/23 11:27:48;;;;;;;;;;;21.20;97.60;;;;;;5014880;28;20030;-76
2021/09/23 11:30:16;;;;;;;5.78;4.78;;;21.30;97.50;;;;;;5046115;28;20495;-76
2021/09/23 11:32:54;;;;;;;6.25;5.68;;;21.50;97.60;;;;;;5013457;28;20033;-76
2021/09/23 11:35:28;;;;;;;5.80;4.50;;;21.40;95.40;;;;;;5014432;28;20107;-76
2021/09/23 11:37:55;;;;;;;4.13;3.83;;;21.50;96.50;;;;;;5014645;28;20041;-76
2021/09/23 11:40:33;;;;;;;6.03;4.75;;;21.60;97.20;;;;;;5014840;28;20026;-76
2021/09/23 11:43:12;;;;;;;4.88;4.47;;;21.70;97.30;;;;;;5014804;28;20091;-76
2021/09/23 11:45:44;;;;;;;5.93;4.63;;;21.70;97.40;;;;;;5014694;28;20105;-76
2021/09/23 11:48:12;;;;;;;5.75;5.13;;;21.80;96.90;;;;;;5014635;28;20030;-76
2021/09/23 11:50:41;;;;;;;8.63;4.68;;;21.90;97.10;;;;;;5014392;28;20163;-76
2021/09/23 11:53:10;;;;;;;5.95;5.38;;;21.80;96.70;;;;;;5014321;28;20157;-76
2021/09/23 11:55:41;;;;;;;7.35;4.95;;;21.80;96.20;;;;;;5013373;28;20025;-74
2021/09/23 11:58:12;;;;;;;6.00;4.78;;;21.60;96.30;;;;;;5014573;28;20026;-73
2021/09/23 12:00:44;;;;;;;6.78;5.00;;;21.60;97.00;;;;;;5014575;28;20029;-73
2021/09/23 12:03:13;;;;;;;7.53;5.25;;;21.60;97.00;;;;;;5013445;28;20033;-73
2021/09/23 12:05:40;;;;;;;5.50;4.97;;;21.60;97.30;;;;;;5014498;28;20022;-74
2021/09/23 12:08:12;;;;;;;8.40;6.88;;;21.70;97.70;;;;;;5014271;28;20573;-73
2021/09/23 12:10:45;;;;;;;6.35;5.75;;;21.70;96.10;;;;;;5014290;28;20014;-73
2021/09/23 12:13:13;;;;;;;10.45;5.82;;;21.80;96.90;;;;;;5014348;28;20492;-73
2021/09/23 12:15:39;;;;;;;9.52;7.28;;;21.90;97.20;;;;;;5013961;28;20025;-73
2021/09/23 12:18:09;;;;;;;11.65;6.65;;;22.00;95.90;;;;;;5014012;28;20029;-73
2021/09/23 12:20:41;;;;;;;8.85;6.63;;;22.00;96.00;;;;;;5014032;28;20101;-73
2021/09/23 12:23:24;;;;;;;8.10;7.15;;;22.00;96.40;;;;;;5013934;28;20069;-74
2021/09/23 12:26:11;;;;;;;6.47;5.97;;;21.90;95.90;;;;;;5013887;28;20032;-76
2021/09/23 12:28:46;;;;;;;8.25;6.03;;;22.00;95.80;;;;;;5014045;28;20022;-76
2021/09/23 12:31:15;;;;;;;9.45;7.13;;;22.10;96.00;;;;;;5013862;28;20014;-76
2021/09/23 12:33:51;;;;;;;8.48;6.55;;;22.00;95.10;;;;;;5013787;28;20030;-76
2021/09/23 12:36:17;;;;;;;8.10;6.65;;;22.00;95.20;;;;;;5012373;28;20596;-73
2021/09/23 12:38:43;;;;;;;11.30;6.50;;;22.10;95.30;;;;;;5013693;28;20472;-73
2021/09/23 12:41:21;;;;;;;9.32;6.50;;;22.10;94.50;;;;;;5013704;28;20041;-73
2021/09/23 12:43:50;;;;;;;10.38;7.63;;;22.20;94.20;;;;;;5013646;28;20025;-76